RS-0006 weather

Backi Monostor Airfield
Sombor, West Bačka, Serbia

Public forecast

Using degrees Celsius for public forecast. Weather courtesy of forecast.io.

Closest aviation weather report (METAR) to Backi Monostor Airfield

Closest report is Osijek Airport, 21.2 nm (39.4 km) SSW. Retrieved 2020/07/02 09:00 UTC (5 minutes ago):

LDOS 020900Z 30012KT CAVOK 29/19 Q1010

Closest aviation forecast (TAF) to Backi Monostor Airfield

Closest forecast is Osijek Airport, 21.2 nm (39.4 km) SSW. Retrieved 2020/07/02 06:27 UTC (3 hours ago):

TAF LDOS 020525Z 0206/0306 11006KT CAVOK TX32/0212Z TN19/0303Z PROB40 TEMPO 0211/0300 27020KT 3000 TSRA SCT050CB BECMG 0221/0223 VRB02KT